sensor_id;sensor_type;location;lat;lon;timestamp;P1;durP1;ratioP1;P2;durP2;ratioP2
32198;SDS011;19221;42.656;21.156;2023-02-11T00:01:07;61.13;;;32.25;;
32198;SDS011;19221;42.656;21.156;2023-02-11T00:03:32;55.95;;;30.50;;
32198;SDS011;19221;42.656;21.156;2023-02-11T00:05:59;56.92;;;30.83;;
32198;SDS011;19221;42.656;21.156;2023-02-11T00:08:25;57.28;;;30.95;;
32198;SDS011;19221;42.656;21.156;2023-02-11T00:10:54;55.28;;;31.10;;
32198;SDS011;19221;42.656;21.156;2023-02-11T00:13:20;59.20;;;33.67;;
32198;SDS011;19221;42.656;21.156;2023-02-11T00:15:46;55.50;;;31.48;;
32198;SDS011;19221;42.656;21.156;2023-02-11T00:18:12;56.38;;;30.27;;
32198;SDS011;19221;42.656;21.156;2023-02-11T00:20:38;61.58;;;31.20;;
32198;SDS011;19221;42.656;21.156;2023-02-11T00:23:03;55.97;;;31.33;;
32198;SDS011;19221;42.656;21.156;2023-02-11T00:25:29;61.50;;;34.47;;
32198;SDS011;19221;42.656;21.156;2023-02-11T00:27:55;66.43;;;34.72;;
32198;SDS011;19221;42.656;21.156;2023-02-11T00:30:20;65.88;;;34.03;;
32198;SDS011;19221;42.656;21.156;2023-02-11T00:32:46;58.20;;;31.40;;
32198;SDS011;19221;42.656;21.156;2023-02-11T00:35:13;71.25;;;37.83;;
32198;SDS011;19221;42.656;21.156;2023-02-11T00:37:39;74.32;;;40.60;;
32198;SDS011;19221;42.656;21.156;2023-02-11T00:40:05;77.20;;;41.47;;
32198;SDS011;19221;42.656;21.156;2023-02-11T00:42:31;68.03;;;37.80;;
32198;SDS011;19221;42.656;21.156;2023-02-11T00:44:57;64.00;;;34.25;;
32198;SDS011;19221;42.656;21.156;2023-02-11T00:47:22;67.22;;;36.28;;
32198;SDS011;19221;42.656;21.156;2023-02-11T00:49:48;63.25;;;34.40;;
32198;SDS011;19221;42.656;21.156;2023-02-11T00:52:13;64.50;;;36.47;;
32198;SDS011;19221;42.656;21.156;2023-02-11T00:54:39;68.05;;;37.50;;
32198;SDS011;19221;42.656;21.156;2023-02-11T00:57:05;72.22;;;39.38;;
32198;SDS011;19221;42.656;21.156;2023-02-11T00:59:31;68.18;;;37.13;;
32198;SDS011;19221;42.656;21.156;2023-02-11T01:01:56;60.85;;;33.15;;
32198;SDS011;19221;42.656;21.156;2023-02-11T01:04:22;60.00;;;33.72;;
32198;SDS011;19221;42.656;21.156;2023-02-11T01:06:48;64.28;;;34.20;;
32198;SDS011;19221;42.656;21.156;2023-02-11T01:09:14;57.47;;;31.90;;
32198;SDS011;19221;42.656;21.156;2023-02-11T01:11:40;58.25;;;32.15;;
32198;SDS011;19221;42.656;21.156;2023-02-11T01:14:06;54.10;;;31.73;;
32198;SDS011;19221;42.656;21.156;2023-02-11T01:16:31;57.53;;;30.23;;
32198;SDS011;19221;42.656;21.156;2023-02-11T01:18:57;52.85;;;29.45;;
32198;SDS011;19221;42.656;21.156;2023-02-11T01:21:23;52.78;;;28.23;;
32198;SDS011;19221;42.656;21.156;2023-02-11T01:23:49;46.22;;;26.98;;
32198;SDS011;19221;42.656;21.156;2023-02-11T01:26:15;47.13;;;25.70;;
32198;SDS011;19221;42.656;21.156;2023-02-11T01:28:40;49.53;;;29.45;;
32198;SDS011;19221;42.656;21.156;2023-02-11T01:31:06;54.20;;;29.45;;
32198;SDS011;19221;42.656;21.156;2023-02-11T01:33:32;49.35;;;28.55;;
32198;SDS011;19221;42.656;21.156;2023-02-11T01:36:01;52.72;;;28.45;;
32198;SDS011;19221;42.656;21.156;2023-02-11T01:38:27;56.40;;;29.50;;
32198;SDS011;19221;42.656;21.156;2023-02-11T01:40:57;66.43;;;34.47;;
32198;SDS011;19221;42.656;21.156;2023-02-11T01:43:24;66.78;;;37.55;;
32198;SDS011;19221;42.656;21.156;2023-02-11T01:46:00;89.50;;;43.85;;
32198;SDS011;19221;42.656;21.156;2023-02-11T01:48:28;101.68;;;51.90;;
32198;SDS011;19221;42.656;21.156;2023-02-11T01:50:58;88.95;;;47.33;;
32198;SDS011;19221;42.656;21.156;2023-02-11T01:53:25;94.53;;;48.45;;
32198;SDS011;19221;42.656;21.156;2023-02-11T01:56:10;89.50;;;45.78;;
32198;SDS011;19221;42.656;21.156;2023-02-11T01:58:57;79.65;;;44.05;;
32198;SDS011;19221;42.656;21.156;2023-02-11T02:01:25;89.55;;;46.83;;
32198;SDS011;19221;42.656;21.156;2023-02-11T02:03:52;79.50;;;45.35;;
32198;SDS011;19221;42.656;21.156;2023-02-11T02:06:21;77.18;;;41.80;;
32198;SDS011;19221;42.656;21.156;2023-02-11T02:11:17;70.88;;;40.17;;
32198;SDS011;19221;42.656;21.156;2023-02-11T02:13:43;71.00;;;40.50;;
32198;SDS011;19221;42.656;21.156;2023-02-11T02:16:12;70.45;;;40.90;;
32198;SDS011;19221;42.656;21.156;2023-02-11T02:23:34;77.75;;;41.78;;
32198;SDS011;19221;42.656;21.156;2023-02-11T02:34:23;74.35;;;40.63;;
32198;SDS011;19221;42.656;21.156;2023-02-11T02:41:24;77.80;;;42.25;;
32198;SDS011;19221;42.656;21.156;2023-02-11T02:43:51;72.13;;;41.17;;
32198;SDS011;19221;42.656;21.156;2023-02-11T02:46:19;71.40;;;39.88;;
32198;SDS011;19221;42.656;21.156;2023-02-11T02:48:45;73.60;;;38.88;;
32198;SDS011;19221;42.656;21.156;2023-02-11T02:51:18;77.63;;;41.63;;
32198;SDS011;19221;42.656;21.156;2023-02-11T02:53:57;76.40;;;40.70;;
32198;SDS011;19221;42.656;21.156;2023-02-11T02:58:58;74.80;;;41.95;;
32198;SDS011;19221;42.656;21.156;2023-02-11T03:04:02;75.78;;;43.33;;
32198;SDS011;19221;42.656;21.156;2023-02-11T03:06:32;73.55;;;39.83;;
32198;SDS011;19221;42.656;21.156;2023-02-11T03:09:02;74.63;;;41.17;;
32198;SDS011;19221;42.656;21.156;2023-02-11T03:11:28;71.20;;;38.92;;
32198;SDS011;19221;42.656;21.156;2023-02-11T03:13:54;70.90;;;39.53;;
32198;SDS011;19221;42.656;21.156;2023-02-11T03:16:22;71.82;;;39.40;;
32198;SDS011;19221;42.656;21.156;2023-02-11T03:18:55;64.85;;;36.67;;
32198;SDS011;19221;42.656;21.156;2023-02-11T03:21:23;66.05;;;34.47;;
32198;SDS011;19221;42.656;21.156;2023-02-11T03:23:52;59.25;;;34.05;;
32198;SDS011;19221;42.656;21.156;2023-02-11T03:26:22;56.17;;;31.88;;
32198;SDS011;19221;42.656;21.156;2023-02-11T03:28:54;56.70;;;32.47;;
32198;SDS011;19221;42.656;21.156;2023-02-11T03:31:26;66.43;;;34.00;;
32198;SDS011;19221;42.656;21.156;2023-02-11T03:34:01;59.10;;;33.25;;
32198;SDS011;19221;42.656;21.156;2023-02-11T03:36:34;63.08;;;35.65;;
32198;SDS011;19221;42.656;21.156;2023-02-11T03:39:02;62.65;;;36.60;;
32198;SDS011;19221;42.656;21.156;2023-02-11T03:41:29;71.15;;;39.03;;
32198;SDS011;19221;42.656;21.156;2023-02-11T03:43:56;77.45;;;41.80;;
32198;SDS011;19221;42.656;21.156;2023-02-11T03:46:23;62.95;;;35.00;;
32198;SDS011;19221;42.656;21.156;2023-02-11T03:48:53;61.90;;;34.38;;
32198;SDS011;19221;42.656;21.156;2023-02-11T03:51:20;60.88;;;33.97;;
32198;SDS011;19221;42.656;21.156;2023-02-11T03:53:47;63.63;;;35.78;;
32198;SDS011;19221;42.656;21.156;2023-02-11T03:56:18;63.20;;;33.78;;
32198;SDS011;19221;42.656;21.156;2023-02-11T03:58:46;64.90;;;34.47;;
32198;SDS011;19221;42.656;21.156;2023-02-11T04:01:12;63.38;;;35.78;;
32198;SDS011;19221;42.656;21.156;2023-02-11T04:03:38;66.07;;;34.88;;
32198;SDS011;19221;42.656;21.156;2023-02-11T04:06:04;65.45;;;33.15;;
32198;SDS011;19221;42.656;21.156;2023-02-11T04:08:29;66.35;;;35.25;;
32198;SDS011;19221;42.656;21.156;2023-02-11T04:10:56;63.67;;;33.55;;
32198;SDS011;19221;42.656;21.156;2023-02-11T04:13:22;64.95;;;33.80;;
32198;SDS011;19221;42.656;21.156;2023-02-11T04:15:48;60.85;;;34.13;;
32198;SDS011;19221;42.656;21.156;2023-02-11T04:18:14;61.88;;;34.10;;
32198;SDS011;19221;42.656;21.156;2023-02-11T04:20:39;58.63;;;32.70;;
32198;SDS011;19221;42.656;21.156;2023-02-11T04:23:05;64.45;;;33.53;;
32198;SDS011;19221;42.656;21.156;2023-02-11T04:25:30;62.95;;;33.45;;
32198;SDS011;19221;42.656;21.156;2023-02-11T04:27:56;63.70;;;32.53;;
32198;SDS011;19221;42.656;21.156;2023-02-11T04:30:22;75.60;;;37.95;;
32198;SDS011;19221;42.656;21.156;2023-02-11T04:32:47;61.90;;;33.72;;
32198;SDS011;19221;42.656;21.156;2023-02-11T04:35:13;59.65;;;33.00;;
32198;SDS011;19221;42.656;21.156;2023-02-11T04:37:39;54.25;;;30.67;;
32198;SDS011;19221;42.656;21.156;2023-02-11T04:40:04;58.03;;;32.83;;
32198;SDS011;19221;42.656;21.156;2023-02-11T04:42:30;57.60;;;31.00;;
32198;SDS011;19221;42.656;21.156;2023-02-11T04:44:56;58.88;;;33.88;;
32198;SDS011;19221;42.656;21.156;2023-02-11T04:47:21;58.97;;;31.95;;
32198;SDS011;19221;42.656;21.156;2023-02-11T04:49:47;69.78;;;35.80;;
32198;SDS011;19221;42.656;21.156;2023-02-11T04:52:13;58.92;;;32.58;;
32198;SDS011;19221;42.656;21.156;2023-02-11T04:54:38;60.00;;;33.25;;
32198;SDS011;19221;42.656;21.156;2023-02-11T04:57:05;60.38;;;33.08;;
32198;SDS011;19221;42.656;21.156;2023-02-11T04:59:31;64.63;;;35.95;;
32198;SDS011;19221;42.656;21.156;2023-02-11T05:01:56;67.38;;;35.42;;
32198;SDS011;19221;42.656;21.156;2023-02-11T05:04:22;71.65;;;37.65;;
32198;SDS011;19221;42.656;21.156;2023-02-11T05:06:48;76.43;;;39.88;;
32198;SDS011;19221;42.656;21.156;2023-02-11T05:09:14;74.10;;;40.20;;
32198;SDS011;19221;42.656;21.156;2023-02-11T05:11:39;69.15;;;38.10;;
32198;SDS011;19221;42.656;21.156;2023-02-11T05:14:05;64.55;;;34.95;;
32198;SDS011;19221;42.656;21.156;2023-02-11T05:16:31;59.42;;;34.05;;
32198;SDS011;19221;42.656;21.156;2023-02-11T05:18:57;63.65;;;34.25;;
32198;SDS011;19221;42.656;21.156;2023-02-11T05:21:22;64.00;;;33.05;;
32198;SDS011;19221;42.656;21.156;2023-02-11T05:23:48;60.13;;;31.92;;
32198;SDS011;19221;42.656;21.156;2023-02-11T05:26:14;65.35;;;33.08;;
32198;SDS011;19221;42.656;21.156;2023-02-11T05:28:40;59.50;;;30.98;;
32198;SDS011;19221;42.656;21.156;2023-02-11T05:31:06;62.92;;;31.42;;
32198;SDS011;19221;42.656;21.156;2023-02-11T05:33:31;62.13;;;32.65;;
32198;SDS011;19221;42.656;21.156;2023-02-11T05:36:07;61.28;;;30.98;;
32198;SDS011;19221;42.656;21.156;2023-02-11T05:38:33;60.83;;;32.45;;
32198;SDS011;19221;42.656;21.156;2023-02-11T05:40:59;60.90;;;32.70;;
32198;SDS011;19221;42.656;21.156;2023-02-11T05:43:25;63.35;;;33.03;;
32198;SDS011;19221;42.656;21.156;2023-02-11T05:45:50;67.53;;;35.65;;
32198;SDS011;19221;42.656;21.156;2023-02-11T05:48:16;65.38;;;34.83;;
32198;SDS011;19221;42.656;21.156;2023-02-11T05:50:42;71.50;;;36.75;;
32198;SDS011;19221;42.656;21.156;2023-02-11T05:53:08;66.95;;;36.63;;
32198;SDS011;19221;42.656;21.156;2023-02-11T05:55:34;75.65;;;36.88;;
32198;SDS011;19221;42.656;21.156;2023-02-11T05:57:59;71.25;;;37.17;;
32198;SDS011;19221;42.656;21.156;2023-02-11T06:00:25;73.35;;;37.03;;
32198;SDS011;19221;42.656;21.156;2023-02-11T06:02:51;106.38;;;51.80;;
32198;SDS011;19221;42.656;21.156;2023-02-11T06:05:16;118.85;;;57.40;;
32198;SDS011;19221;42.656;21.156;2023-02-11T06:07:42;108.18;;;53.90;;
32198;SDS011;19221;42.656;21.156;2023-02-11T06:10:08;116.10;;;57.65;;
32198;SDS011;19221;42.656;21.156;2023-02-11T06:12:34;107.45;;;54.83;;
32198;SDS011;19221;42.656;21.156;2023-02-11T06:15:00;102.00;;;53.97;;
32198;SDS011;19221;42.656;21.156;2023-02-11T06:17:26;88.90;;;50.33;;
32198;SDS011;19221;42.656;21.156;2023-02-11T06:19:56;85.20;;;46.35;;
32198;SDS011;19221;42.656;21.156;2023-02-11T06:22:21;85.10;;;44.05;;
32198;SDS011;19221;42.656;21.156;2023-02-11T06:24:47;76.28;;;40.17;;
32198;SDS011;19221;42.656;21.156;2023-02-11T06:27:12;70.18;;;36.65;;
32198;SDS011;19221;42.656;21.156;2023-02-11T06:29:38;63.30;;;34.75;;
32198;SDS011;19221;42.656;21.156;2023-02-11T06:32:04;78.75;;;42.90;;
32198;SDS011;19221;42.656;21.156;2023-02-11T06:34:29;86.82;;;46.70;;
32198;SDS011;19221;42.656;21.156;2023-02-11T06:36:55;91.47;;;49.65;;
32198;SDS011;19221;42.656;21.156;2023-02-11T06:39:21;88.82;;;47.55;;
32198;SDS011;19221;42.656;21.156;2023-02-11T06:41:46;82.68;;;45.03;;
32198;SDS011;19221;42.656;21.156;2023-02-11T06:44:12;80.25;;;45.50;;
32198;SDS011;19221;42.656;21.156;2023-02-11T06:46:38;82.85;;;45.38;;
32198;SDS011;19221;42.656;21.156;2023-02-11T06:49:03;81.63;;;45.60;;
32198;SDS011;19221;42.656;21.156;2023-02-11T06:51:29;84.78;;;46.08;;
32198;SDS011;19221;42.656;21.156;2023-02-11T06:53:55;88.15;;;49.03;;
32198;SDS011;19221;42.656;21.156;2023-02-11T06:56:21;85.13;;;49.08;;
32198;SDS011;19221;42.656;21.156;2023-02-11T06:58:47;91.72;;;49.70;;
32198;SDS011;19221;42.656;21.156;2023-02-11T07:01:14;95.88;;;51.85;;
32198;SDS011;19221;42.656;21.156;2023-02-11T07:03:41;85.55;;;48.90;;
32198;SDS011;19221;42.656;21.156;2023-02-11T07:06:07;92.82;;;52.53;;
32198;SDS011;19221;42.656;21.156;2023-02-11T07:08:35;92.18;;;50.45;;
32198;SDS011;19221;42.656;21.156;2023-02-11T07:11:09;90.50;;;49.63;;
32198;SDS011;19221;42.656;21.156;2023-02-11T07:13:35;76.78;;;43.28;;
32198;SDS011;19221;42.656;21.156;2023-02-11T07:16:04;73.05;;;42.42;;
32198;SDS011;19221;42.656;21.156;2023-02-11T07:18:30;80.70;;;46.40;;
32198;SDS011;19221;42.656;21.156;2023-02-11T07:20:55;85.05;;;46.85;;
32198;SDS011;19221;42.656;21.156;2023-02-11T07:23:21;100.35;;;54.60;;
32198;SDS011;19221;42.656;21.156;2023-02-11T07:25:47;118.97;;;66.65;;
32198;SDS011;19221;42.656;21.156;2023-02-11T07:28:12;108.65;;;57.53;;
32198;SDS011;19221;42.656;21.156;2023-02-11T07:30:38;101.82;;;58.20;;
32198;SDS011;19221;42.656;21.156;2023-02-11T07:33:03;106.45;;;57.85;;
32198;SDS011;19221;42.656;21.156;2023-02-11T07:35:29;116.75;;;60.15;;
32198;SDS011;19221;42.656;21.156;2023-02-11T07:37:55;96.28;;;56.67;;
32198;SDS011;19221;42.656;21.156;2023-02-11T07:40:20;111.78;;;59.40;;
32198;SDS011;19221;42.656;21.156;2023-02-11T07:42:46;124.75;;;68.70;;
32198;SDS011;19221;42.656;21.156;2023-02-11T07:45:12;119.15;;;65.20;;
32198;SDS011;19221;42.656;21.156;2023-02-11T07:47:38;118.25;;;63.03;;
32198;SDS011;19221;42.656;21.156;2023-02-11T07:50:04;114.72;;;63.53;;
32198;SDS011;19221;42.656;21.156;2023-02-11T07:52:31;123.97;;;64.97;;
32198;SDS011;19221;42.656;21.156;2023-02-11T07:54:56;133.23;;;73.10;;
32198;SDS011;19221;42.656;21.156;2023-02-11T07:57:22;123.47;;;66.13;;
32198;SDS011;19221;42.656;21.156;2023-02-11T07:59:48;108.25;;;58.75;;
32198;SDS011;19221;42.656;21.156;2023-02-11T08:02:13;114.38;;;64.47;;
32198;SDS011;19221;42.656;21.156;2023-02-11T08:04:39;130.80;;;66.40;;
32198;SDS011;19221;42.656;21.156;2023-02-11T08:07:05;122.63;;;66.82;;
32198;SDS011;19221;42.656;21.156;2023-02-11T08:09:31;106.63;;;61.85;;
32198;SDS011;19221;42.656;21.156;2023-02-11T08:11:56;101.95;;;55.75;;
32198;SDS011;19221;42.656;21.156;2023-02-11T08:14:22;98.05;;;55.55;;
32198;SDS011;19221;42.656;21.156;2023-02-11T08:16:49;96.93;;;53.40;;
32198;SDS011;19221;42.656;21.156;2023-02-11T08:19:15;93.72;;;54.72;;
32198;SDS011;19221;42.656;21.156;2023-02-11T08:21:41;91.07;;;54.13;;
32198;SDS011;19221;42.656;21.156;2023-02-11T08:24:07;88.32;;;51.25;;
32198;SDS011;19221;42.656;21.156;2023-02-11T08:26:33;87.57;;;50.83;;
32198;SDS011;19221;42.656;21.156;2023-02-11T08:28:59;98.90;;;55.15;;
32198;SDS011;19221;42.656;21.156;2023-02-11T08:31:27;80.18;;;47.05;;
32198;SDS011;19221;42.656;21.156;2023-02-11T08:33:53;85.85;;;50.50;;
32198;SDS011;19221;42.656;21.156;2023-02-11T08:36:26;87.97;;;50.85;;
32198;SDS011;19221;42.656;21.156;2023-02-11T08:38:57;76.82;;;46.50;;
32198;SDS011;19221;42.656;21.156;2023-02-11T08:41:24;75.63;;;41.70;;
32198;SDS011;19221;42.656;21.156;2023-02-11T08:43:50;71.80;;;41.20;;
32198;SDS011;19221;42.656;21.156;2023-02-11T08:46:17;80.75;;;43.35;;
32198;SDS011;19221;42.656;21.156;2023-02-11T08:48:43;82.45;;;44.42;;
32198;SDS011;19221;42.656;21.156;2023-02-11T08:51:10;70.55;;;39.33;;
32198;SDS011;19221;42.656;21.156;2023-02-11T08:53:37;68.93;;;38.20;;
32198;SDS011;19221;42.656;21.156;2023-02-11T08:56:03;66.18;;;37.90;;
32198;SDS011;19221;42.656;21.156;2023-02-11T08:58:29;61.35;;;36.28;;
32198;SDS011;19221;42.656;21.156;2023-02-11T09:00:55;60.90;;;35.60;;
32198;SDS011;19221;42.656;21.156;2023-02-11T09:03:20;63.35;;;36.35;;
32198;SDS011;19221;42.656;21.156;2023-02-11T09:05:47;64.47;;;36.92;;
32198;SDS011;19221;42.656;21.156;2023-02-11T09:08:14;67.53;;;38.85;;
32198;SDS011;19221;42.656;21.156;2023-02-11T09:10:40;63.58;;;38.13;;
32198;SDS011;19221;42.656;21.156;2023-02-11T09:13:06;72.88;;;39.30;;
32198;SDS011;19221;42.656;21.156;2023-02-11T09:15:32;65.20;;;36.40;;
32198;SDS011;19221;42.656;21.156;2023-02-11T09:17:57;69.93;;;39.05;;
32198;SDS011;19221;42.656;21.156;2023-02-11T09:20:23;74.45;;;43.67;;
32198;SDS011;19221;42.656;21.156;2023-02-11T09:22:50;75.07;;;42.28;;
32198;SDS011;19221;42.656;21.156;2023-02-11T09:25:16;77.03;;;44.70;;
32198;SDS011;19221;42.656;21.156;2023-02-11T09:27:42;81.05;;;45.50;;
32198;SDS011;19221;42.656;21.156;2023-02-11T09:30:07;85.93;;;48.13;;
32198;SDS011;19221;42.656;21.156;2023-02-11T09:32:33;81.35;;;43.85;;
32198;SDS011;19221;42.656;21.156;2023-02-11T09:34:59;81.32;;;45.72;;
32198;SDS011;19221;42.656;21.156;2023-02-11T09:37:24;64.32;;;39.25;;
32198;SDS011;19221;42.656;21.156;2023-02-11T09:39:50;62.25;;;37.80;;
32198;SDS011;19221;42.656;21.156;2023-02-11T09:44:42;73.13;;;40.72;;
32198;SDS011;19221;42.656;21.156;2023-02-11T09:47:19;69.22;;;40.13;;
32198;SDS011;19221;42.656;21.156;2023-02-11T09:49:47;71.13;;;41.35;;
32198;SDS011;19221;42.656;21.156;2023-02-11T09:54:56;73.20;;;39.35;;
32198;SDS011;19221;42.656;21.156;2023-02-11T09:57:31;60.80;;;34.70;;
32198;SDS011;19221;42.656;21.156;2023-02-11T09:59:57;69.90;;;38.50;;
32198;SDS011;19221;42.656;21.156;2023-02-11T10:07:59;50.80;;;28.77;;
32198;SDS011;19221;42.656;21.156;2023-02-11T10:18:13;60.63;;;31.02;;
32198;SDS011;19221;42.656;21.156;2023-02-11T10:23:16;53.55;;;27.42;;
32198;SDS011;19221;42.656;21.156;2023-02-11T10:25:44;60.40;;;29.27;;
32198;SDS011;19221;42.656;21.156;2023-02-11T10:28:13;51.53;;;27.45;;
32198;SDS011;19221;42.656;21.156;2023-02-11T10:30:41;50.22;;;27.70;;
32198;SDS011;19221;42.656;21.156;2023-02-11T10:35:52;40.63;;;23.30;;
32198;SDS011;19221;42.656;21.156;2023-02-11T10:38:18;47.63;;;24.15;;
32198;SDS011;19221;42.656;21.156;2023-02-11T10:40:44;52.47;;;26.13;;
32198;SDS011;19221;42.656;21.156;2023-02-11T10:43:11;39.22;;;22.10;;
32198;SDS011;19221;42.656;21.156;2023-02-11T10:45:42;39.38;;;22.65;;
32198;SDS011;19221;42.656;21.156;2023-02-11T10:51:05;34.58;;;20.35;;
32198;SDS011;19221;42.656;21.156;2023-02-11T10:53:31;40.88;;;23.15;;
32198;SDS011;19221;42.656;21.156;2023-02-11T10:55:58;39.13;;;22.15;;
32198;SDS011;19221;42.656;21.156;2023-02-11T10:58:27;34.30;;;20.65;;
32198;SDS011;19221;42.656;21.156;2023-02-11T11:00:54;38.17;;;21.27;;
32198;SDS011;19221;42.656;21.156;2023-02-11T11:03:22;36.17;;;19.98;;
32198;SDS011;19221;42.656;21.156;2023-02-11T11:05:52;34.63;;;19.63;;
32198;SDS011;19221;42.656;21.156;2023-02-11T11:10:46;43.58;;;22.95;;
32198;SDS011;19221;42.656;21.156;2023-02-11T11:13:25;44.00;;;24.23;;
32198;SDS011;19221;42.656;21.156;2023-02-11T11:18:35;36.08;;;18.67;;
32198;SDS011;19221;42.656;21.156;2023-02-11T11:21:02;28.17;;;15.50;;
32198;SDS011;19221;42.656;21.156;2023-02-11T11:23:30;29.05;;;14.45;;
32198;SDS011;19221;42.656;21.156;2023-02-11T11:28:28;28.23;;;15.98;;
32198;SDS011;19221;42.656;21.156;2023-02-11T11:30:55;25.30;;;14.35;;
32198;SDS011;19221;42.656;21.156;2023-02-11T11:33:23;28.50;;;14.65;;
32198;SDS011;19221;42.656;21.156;2023-02-11T11:36:08;24.55;;;14.10;;
32198;SDS011;19221;42.656;21.156;2023-02-11T11:38:35;26.75;;;13.70;;
32198;SDS011;19221;42.656;21.156;2023-02-11T11:41:22;25.35;;;15.20;;
32198;SDS011;19221;42.656;21.156;2023-02-11T11:46:35;29.52;;;15.02;;
32198;SDS011;19221;42.656;21.156;2023-02-11T11:49:11;37.78;;;16.15;;
32198;SDS011;19221;42.656;21.156;2023-02-11T11:51:38;31.08;;;17.20;;
32198;SDS011;19221;42.656;21.156;2023-02-11T11:54:07;32.72;;;17.58;;
32198;SDS011;19221;42.656;21.156;2023-02-11T11:56:37;34.88;;;16.17;;
32198;SDS011;19221;42.656;21.156;2023-02-11T11:59:10;38.65;;;17.73;;
32198;SDS011;19221;42.656;21.156;2023-02-11T12:01:50;34.80;;;12.30;;
32198;SDS011;19221;42.656;21.156;2023-02-11T12:04:32;26.73;;;13.10;;
32198;SDS011;19221;42.656;21.156;2023-02-11T12:12:36;43.67;;;12.88;;
32198;SDS011;19221;42.656;21.156;2023-02-11T12:38:32;21.95;;;11.90;;
32198;SDS011;19221;42.656;21.156;2023-02-11T12:43:35;27.27;;;13.48;;
32198;SDS011;19221;42.656;21.156;2023-02-11T12:58:42;24.65;;;13.07;;
32198;SDS011;19221;42.656;21.156;2023-02-11T13:01:28;21.92;;;11.82;;
32198;SDS011;19221;42.656;21.156;2023-02-11T13:03:59;19.77;;;13.00;;
32198;SDS011;19221;42.656;21.156;2023-02-11T13:06:33;18.63;;;10.15;;
32198;SDS011;19221;42.656;21.156;2023-02-11T13:09:02;16.08;;;10.45;;
32198;SDS011;19221;42.656;21.156;2023-02-11T13:11:38;17.08;;;9.57;;
32198;SDS011;19221;42.656;21.156;2023-02-11T13:29:20;21.33;;;10.60;;
32198;SDS011;19221;42.656;21.156;2023-02-11T13:31:55;19.42;;;8.98;;
32198;SDS011;19221;42.656;21.156;2023-02-11T13:37:12;20.45;;;10.30;;
32198;SDS011;19221;42.656;21.156;2023-02-11T13:39:54;19.73;;;10.30;;
32198;SDS011;19221;42.656;21.156;2023-02-11T13:42:20;18.80;;;9.52;;
32198;SDS011;19221;42.656;21.156;2023-02-11T13:44:46;25.60;;;12.43;;
32198;SDS011;19221;42.656;21.156;2023-02-11T13:47:21;19.73;;;11.02;;
32198;SDS011;19221;42.656;21.156;2023-02-11T13:49:49;17.30;;;10.82;;
32198;SDS011;19221;42.656;21.156;2023-02-11T13:52:28;18.67;;;10.82;;
32198;SDS011;19221;42.656;21.156;2023-02-11T13:54:56;16.25;;;10.60;;
32198;SDS011;19221;42.656;21.156;2023-02-11T13:57:29;21.00;;;10.77;;
32198;SDS011;19221;42.656;21.156;2023-02-11T13:59:56;21.45;;;11.95;;
32198;SDS011;19221;42.656;21.156;2023-02-11T14:02:30;17.98;;;11.48;;
32198;SDS011;19221;42.656;21.156;2023-02-11T14:10:56;22.52;;;11.65;;
32198;SDS011;19221;42.656;21.156;2023-02-11T14:16:07;21.23;;;11.02;;
32198;SDS011;19221;42.656;21.156;2023-02-11T14:18:37;20.02;;;10.95;;
32198;SDS011;19221;42.656;21.156;2023-02-11T14:23:36;18.35;;;9.50;;
32198;SDS011;19221;42.656;21.156;2023-02-11T14:28:42;22.37;;;9.70;;
32198;SDS011;19221;42.656;21.156;2023-02-11T14:31:11;19.35;;;10.85;;
32198;SDS011;19221;42.656;21.156;2023-02-11T14:41:30;21.87;;;11.33;;
32198;SDS011;19221;42.656;21.156;2023-02-11T14:44:00;26.75;;;12.65;;
32198;SDS011;19221;42.656;21.156;2023-02-11T14:46:29;34.58;;;13.93;;
32198;SDS011;19221;42.656;21.156;2023-02-11T14:48:56;28.40;;;14.25;;
32198;SDS011;19221;42.656;21.156;2023-02-11T14:51:29;37.20;;;17.88;;
32198;SDS011;19221;42.656;21.156;2023-02-11T14:53:57;39.53;;;20.73;;
32198;SDS011;19221;42.656;21.156;2023-02-11T14:56:29;42.50;;;19.58;;
32198;SDS011;19221;42.656;21.156;2023-02-11T14:58:59;31.92;;;15.75;;
32198;SDS011;19221;42.656;21.156;2023-02-11T15:03:52;30.10;;;14.35;;
32198;SDS011;19221;42.656;21.156;2023-02-11T15:06:28;45.78;;;24.48;;
32198;SDS011;19221;42.656;21.156;2023-02-11T15:08:59;35.17;;;18.83;;
32198;SDS011;19221;42.656;21.156;2023-02-11T15:13:52;36.13;;;19.80;;
32198;SDS011;19221;42.656;21.156;2023-02-11T15:16:20;34.53;;;18.45;;
32198;SDS011;19221;42.656;21.156;2023-02-11T15:18:50;34.80;;;17.55;;
32198;SDS011;19221;42.656;21.156;2023-02-11T15:21:24;32.15;;;15.98;;
32198;SDS011;19221;42.656;21.156;2023-02-11T15:24:04;33.92;;;14.90;;
32198;SDS011;19221;42.656;21.156;2023-02-11T15:26:31;28.83;;;13.48;;
32198;SDS011;19221;42.656;21.156;2023-02-11T15:28:57;29.63;;;15.75;;
32198;SDS011;19221;42.656;21.156;2023-02-11T15:31:23;41.25;;;19.10;;
32198;SDS011;19221;42.656;21.156;2023-02-11T15:33:49;34.13;;;16.35;;
32198;SDS011;19221;42.656;21.156;2023-02-11T15:36:16;40.30;;;16.38;;
32198;SDS011;19221;42.656;21.156;2023-02-11T15:38:42;37.75;;;18.88;;
32198;SDS011;19221;42.656;21.156;2023-02-11T15:41:34;32.95;;;15.10;;
32198;SDS011;19221;42.656;21.156;2023-02-11T15:43:53;38.17;;;18.08;;
32198;SDS011;19221;42.656;21.156;2023-02-11T15:46:19;36.35;;;17.80;;
32198;SDS011;19221;42.656;21.156;2023-02-11T15:48:52;35.53;;;17.08;;
32198;SDS011;19221;42.656;21.156;2023-02-11T15:53:49;39.92;;;18.55;;
32198;SDS011;19221;42.656;21.156;2023-02-11T15:58:43;51.22;;;22.88;;
32198;SDS011;19221;42.656;21.156;2023-02-11T16:01:09;52.00;;;24.02;;
32198;SDS011;19221;42.656;21.156;2023-02-11T16:03:35;48.63;;;21.15;;
32198;SDS011;19221;42.656;21.156;2023-02-11T16:11:31;41.28;;;18.92;;
32198;SDS011;19221;42.656;21.156;2023-02-11T16:13:57;55.65;;;29.90;;
32198;SDS011;19221;42.656;21.156;2023-02-11T16:16:29;74.80;;;33.15;;
32198;SDS011;19221;42.656;21.156;2023-02-11T16:18:57;68.78;;;32.83;;
32198;SDS011;19221;42.656;21.156;2023-02-11T16:21:28;74.22;;;32.95;;
32198;SDS011;19221;42.656;21.156;2023-02-11T16:23:57;109.82;;;53.05;;
32198;SDS011;19221;42.656;21.156;2023-02-11T16:26:25;98.25;;;47.33;;
32198;SDS011;19221;42.656;21.156;2023-02-11T16:28:51;109.07;;;52.60;;
32198;SDS011;19221;42.656;21.156;2023-02-11T16:31:17;111.03;;;46.50;;
32198;SDS011;19221;42.656;21.156;2023-02-11T16:33:43;109.82;;;51.63;;
32198;SDS011;19221;42.656;21.156;2023-02-11T16:36:10;110.63;;;53.95;;
32198;SDS011;19221;42.656;21.156;2023-02-11T16:38:36;164.02;;;75.50;;
32198;SDS011;19221;42.656;21.156;2023-02-11T16:41:02;157.15;;;78.15;;
32198;SDS011;19221;42.656;21.156;2023-02-11T16:43:27;166.98;;;80.65;;
32198;SDS011;19221;42.656;21.156;2023-02-11T16:45:53;160.90;;;85.80;;
32198;SDS011;19221;42.656;21.156;2023-02-11T16:48:18;179.15;;;93.38;;
32198;SDS011;19221;42.656;21.156;2023-02-11T16:50:46;307.48;;;151.55;;
32198;SDS011;19221;42.656;21.156;2023-02-11T16:53:14;257.42;;;132.40;;